createdAt,value
2023-02-16T00:00:33.205Z,51.87
2023-02-16T00:03:00.740Z,59.17
2023-02-16T00:05:29.768Z,66.47
2023-02-16T00:08:00.100Z,55.67
2023-02-16T00:10:30.516Z,72.63
2023-02-16T00:13:15.883Z,48.27
2023-02-16T00:15:43.475Z,55.20
2023-02-16T00:18:17.304Z,43.90
2023-02-16T00:20:45.034Z,49.40
2023-02-16T00:23:13.921Z,53.77
2023-02-16T00:25:41.565Z,55.93
2023-02-16T00:28:15.769Z,74.37
2023-02-16T00:30:43.365Z,47.17
2023-02-16T00:33:15.243Z,59.77
2023-02-16T00:35:42.871Z,86.13
2023-02-16T00:38:10.441Z,67.13
2023-02-16T00:40:39.935Z,59.53
2023-02-16T00:43:07.912Z,79.03
2023-02-16T00:45:38.224Z,61.10
2023-02-16T00:48:06.224Z,76.30
2023-02-16T00:50:35.347Z,52.13
2023-02-16T00:53:03.382Z,101.83
2023-02-16T00:55:33.475Z,61.63
2023-02-16T00:58:04.435Z,67.83
2023-02-16T01:00:35.518Z,63.70
2023-02-16T01:03:06.580Z,68.50
2023-02-16T01:05:34.268Z,66.10
2023-02-16T01:08:19.899Z,51.20
2023-02-16T01:11:05.674Z,47.07
2023-02-16T01:13:39.841Z,61.40
2023-02-16T01:16:13.520Z,87.57
2023-02-16T01:18:41.317Z,86.30
2023-02-16T01:21:08.902Z,56.33
2023-02-16T01:23:36.905Z,107.50
2023-02-16T01:26:05.337Z,75.07
2023-02-16T01:28:36.677Z,61.33
2023-02-16T01:31:06.208Z,115.60
2023-02-16T01:33:34.387Z,63.80
2023-02-16T01:36:01.936Z,77.13
2023-02-16T01:38:29.757Z,86.97
2023-02-16T01:41:06.871Z,58.40
2023-02-16T01:43:43.295Z,62.33
2023-02-16T01:46:13.551Z,54.33
2023-02-16T01:48:41.518Z,61.33
2023-02-16T01:51:15.174Z,51.60
2023-02-16T01:53:45.598Z,64.67
2023-02-16T01:56:21.207Z,59.33
2023-02-16T01:58:52.573Z,79.57
2023-02-16T02:01:41.489Z,62.73
2023-02-16T02:04:35.627Z,55.93
2023-02-16T02:07:03.232Z,66.93
2023-02-16T02:09:36.633Z,72.57
2023-02-16T02:12:10.856Z,56.03
2023-02-16T02:14:40.821Z,74.47
2023-02-16T02:17:13.104Z,56.50
2023-02-16T02:19:49.737Z,76.47
2023-02-16T02:23:31.567Z,59.00
2023-02-16T02:26:44.119Z,50.30
2023-02-16T02:29:28.871Z,56.20
2023-02-16T02:32:02.543Z,56.63
2023-02-16T02:34:38.433Z,55.03
2023-02-16T02:37:12.204Z,77.27
2023-02-16T02:39:48.011Z,67.77
2023-02-16T02:42:19.714Z,69.83
2023-02-16T02:44:51.825Z,59.73
2023-02-16T02:47:19.829Z,58.60
2023-02-16T02:49:51.672Z,62.50
2023-02-16T02:52:19.567Z,61.30
2023-02-16T02:55:04.895Z,60.90
2023-02-16T02:57:52.244Z,57.47
2023-02-16T03:00:41.633Z,57.57
2023-02-16T03:03:12.426Z,54.03
2023-02-16T03:05:42.499Z,68.57
2023-02-16T03:08:15.109Z,52.03
2023-02-16T03:11:02.182Z,60.40
2023-02-16T03:13:33.583Z,56.90
2023-02-16T03:16:05.042Z,56.80
2023-02-16T03:18:52.790Z,61.60
2023-02-16T03:21:38.171Z,73.83
2023-02-16T03:24:25.987Z,54.67
2023-02-16T03:27:12.380Z,57.53
2023-02-16T03:29:40.966Z,55.93
2023-02-16T03:32:10.024Z,77.07
2023-02-16T03:34:38.169Z,57.73
2023-02-16T03:37:06.578Z,51.03
2023-02-16T03:39:54.633Z,54.73
2023-02-16T03:42:24.178Z,50.27
2023-02-16T03:44:52.099Z,59.67
2023-02-16T03:47:20.983Z,52.23
2023-02-16T03:49:48.682Z,61.97
2023-02-16T03:52:16.218Z,51.40
2023-02-16T03:54:44.165Z,62.27
2023-02-16T03:57:11.669Z,57.40
2023-02-16T03:59:39.260Z,60.40
2023-02-16T04:02:07.264Z,60.27
2023-02-16T04:04:36.485Z,56.07
2023-02-16T04:07:04.753Z,81.13
2023-02-16T04:09:32.263Z,70.67
2023-02-16T04:12:17.750Z,68.13
2023-02-16T04:14:45.304Z,66.73
2023-02-16T04:17:12.840Z,117.70
2023-02-16T04:19:41.865Z,61.27
2023-02-16T04:22:09.762Z,62.60
2023-02-16T04:24:37.742Z,64.97
2023-02-16T04:27:05.356Z,55.63
2023-02-16T04:29:33.060Z,58.97
2023-02-16T04:32:00.784Z,69.93
2023-02-16T04:34:28.421Z,57.13
2023-02-16T04:36:57.468Z,57.17
2023-02-16T04:39:25.104Z,61.27
2023-02-16T04:41:52.679Z,54.67
2023-02-16T04:44:20.265Z,57.63
2023-02-16T04:46:48.118Z,51.17
2023-02-16T04:49:15.800Z,74.10
2023-02-16T04:51:43.477Z,79.00
2023-02-16T04:54:12.571Z,86.43
2023-02-16T04:56:40.128Z,84.60
2023-02-16T04:59:07.688Z,71.77
2023-02-16T05:01:35.254Z,122.63
2023-02-16T05:04:02.809Z,124.63
2023-02-16T05:06:30.380Z,121.10
2023-02-16T05:08:57.960Z,70.37
2023-02-16T05:11:45.033Z,110.03
2023-02-16T05:14:36.357Z,56.97
2023-02-16T05:17:04.157Z,90.53
2023-02-16T05:19:31.850Z,67.20
2023-02-16T05:21:59.409Z,92.00
2023-02-16T05:24:28.497Z,78.83
2023-02-16T05:26:57.891Z,86.33
2023-02-16T05:29:25.634Z,82.23
2023-02-16T05:31:53.407Z,64.27
2023-02-16T05:34:21.334Z,69.53
2023-02-16T05:36:48.882Z,83.57
2023-02-16T05:39:16.462Z,72.30
2023-02-16T05:41:44.085Z,70.70
2023-02-16T05:44:13.874Z,82.73
2023-02-16T05:46:41.814Z,82.33
2023-02-16T05:49:10.256Z,94.43
2023-02-16T05:51:38.268Z,91.80
2023-02-16T05:54:06.196Z,97.10
2023-02-16T05:56:34.256Z,84.37
2023-02-16T05:59:01.809Z,57.23
2023-02-16T06:01:30.709Z,71.83
2023-02-16T06:03:58.222Z,75.47
2023-02-16T06:06:25.807Z,74.07
2023-02-16T06:08:53.349Z,56.70
2023-02-16T06:11:39.358Z,99.50
2023-02-16T06:14:09.050Z,58.50
2023-02-16T06:16:39.707Z,53.43
2023-02-16T06:19:07.738Z,64.17
2023-02-16T06:21:36.389Z,57.33
2023-02-16T06:24:04.474Z,60.23
2023-02-16T06:26:32.877Z,58.70
2023-02-16T06:29:00.784Z,53.47
2023-02-16T06:31:28.806Z,53.43
2023-02-16T06:33:57.969Z,59.83
2023-02-16T06:36:26.247Z,66.67
2023-02-16T06:38:53.793Z,71.83
2023-02-16T06:41:32.201Z,60.53
2023-02-16T06:44:00.385Z,70.33
2023-02-16T06:46:28.542Z,56.73
2023-02-16T06:48:57.470Z,59.33
2023-02-16T06:51:25.294Z,65.90
2023-02-16T06:53:52.800Z,61.70
2023-02-16T06:56:20.328Z,64.93
2023-02-16T06:58:48.210Z,78.10
2023-02-16T07:01:16.638Z,83.43
2023-02-16T07:03:44.335Z,68.47
2023-02-16T07:06:13.190Z,71.70
2023-02-16T07:08:40.716Z,60.83
2023-02-16T07:11:08.432Z,78.10
2023-02-16T07:13:36.639Z,63.53
2023-02-16T07:16:04.518Z,70.07
2023-02-16T07:18:32.457Z,66.17
2023-02-16T07:21:00.086Z,60.30
2023-02-16T07:23:29.221Z,66.03
2023-02-16T07:25:56.733Z,67.30
2023-02-16T07:28:24.321Z,58.50
2023-02-16T07:30:52.049Z,78.97
2023-02-16T07:33:20.465Z,69.43
2023-02-16T07:35:48.164Z,66.13
2023-02-16T07:38:15.712Z,66.00
2023-02-16T07:40:44.628Z,67.53
2023-02-16T07:43:12.165Z,81.57
2023-02-16T07:45:39.881Z,76.97
2023-02-16T07:48:07.461Z,69.93
2023-02-16T07:50:35.072Z,59.63
2023-02-16T07:53:03.136Z,54.93
2023-02-16T07:55:31.132Z,64.37
2023-02-16T07:58:00.135Z,60.63
2023-02-16T08:00:27.994Z,57.53
2023-02-16T08:02:56.039Z,59.93
2023-02-16T08:05:23.918Z,58.23
2023-02-16T08:07:51.511Z,62.70
2023-02-16T08:10:19.219Z,56.90
2023-02-16T08:12:46.810Z,60.03
2023-02-16T08:15:16.661Z,68.20
2023-02-16T08:17:44.341Z,74.80
2023-02-16T08:20:12.574Z,57.47
2023-02-16T08:22:40.174Z,69.83
2023-02-16T08:25:08.298Z,54.57
2023-02-16T08:27:36.044Z,57.10
2023-02-16T08:30:03.691Z,55.57
2023-02-16T08:32:32.676Z,53.53
2023-02-16T08:35:00.724Z,58.10
2023-02-16T08:37:28.678Z,60.97
2023-02-16T08:39:56.236Z,62.60
2023-02-16T08:42:23.769Z,57.17
2023-02-16T08:44:51.353Z,50.37
2023-02-16T08:47:20.419Z,63.47
2023-02-16T08:49:49.934Z,63.43
2023-02-16T08:52:17.671Z,72.83
2023-02-16T08:54:45.220Z,54.03
2023-02-16T08:57:13.347Z,56.27
2023-02-16T08:59:40.952Z,57.43
2023-02-16T09:02:08.713Z,67.90
2023-02-16T09:04:36.893Z,65.53
2023-02-16T09:07:06.210Z,60.73
2023-02-16T09:09:33.996Z,57.47
2023-02-16T09:12:01.519Z,61.43
2023-02-16T09:14:29.239Z,56.20
2023-02-16T09:16:58.270Z,57.73
2023-02-16T09:19:26.023Z,56.63
2023-02-16T09:21:56.222Z,62.33
2023-02-16T09:24:25.256Z,53.67
2023-02-16T09:26:52.867Z,54.17
2023-02-16T09:29:21.246Z,62.33
2023-02-16T09:31:49.412Z,51.57
2023-02-16T09:34:19.173Z,56.00
2023-02-16T09:36:47.167Z,55.97
2023-02-16T09:39:16.414Z,57.60
2023-02-16T09:42:01.526Z,67.67
2023-02-16T09:44:39.794Z,60.60
2023-02-16T09:47:12.323Z,55.63
2023-02-16T09:49:42.309Z,62.27
2023-02-16T09:52:15.094Z,57.67
2023-02-16T09:54:47.627Z,88.10
2023-02-16T09:57:22.259Z,66.00
2023-02-16T09:59:53.444Z,54.73
2023-02-16T10:02:35.319Z,58.73
2023-02-16T10:05:20.147Z,52.27
2023-02-16T10:08:00.920Z,58.53
2023-02-16T10:10:34.129Z,55.63
2023-02-16T10:13:07.475Z,57.00
2023-02-16T10:15:36.151Z,64.73
2023-02-16T10:18:08.136Z,57.60
2023-02-16T10:20:38.051Z,52.73
2023-02-16T10:23:10.762Z,54.30
2023-02-16T10:25:43.296Z,50.23
2023-02-16T10:28:17.587Z,52.70
2023-02-16T10:30:50.670Z,55.93
2023-02-16T10:33:26.430Z,58.17
2023-02-16T10:36:00.322Z,52.67
2023-02-16T10:38:33.006Z,50.30
2023-02-16T10:41:05.126Z,53.70
2023-02-16T10:43:43.149Z,53.37
2023-02-16T10:46:11.750Z,52.03
2023-02-16T10:48:39.305Z,56.83
2023-02-16T10:51:09.204Z,58.87
2023-02-16T10:53:41.907Z,54.47
2023-02-16T10:56:44.742Z,50.63
2023-02-16T10:59:17.593Z,49.80
2023-02-16T11:01:46.268Z,53.73
2023-02-16T11:04:36.638Z,47.70
2023-02-16T11:07:06.916Z,45.93
2023-02-16T11:09:34.406Z,47.93
2023-02-16T11:12:02.331Z,45.83
2023-02-16T11:14:32.142Z,47.67
2023-02-16T11:17:08.550Z,42.33
2023-02-16T11:19:36.564Z,43.87
2023-02-16T11:22:04.157Z,37.97
2023-02-16T11:24:33.732Z,47.77
2023-02-16T11:27:03.344Z,42.70
2023-02-16T11:29:32.442Z,43.07
2023-02-16T11:32:00.650Z,37.00
2023-02-16T11:34:32.762Z,40.27
2023-02-16T11:37:06.487Z,35.33
2023-02-16T11:39:37.541Z,39.37
2023-02-16T11:42:08.213Z,40.13
2023-02-16T11:44:39.644Z,34.20
2023-02-16T11:47:08.967Z,33.27
2023-02-16T11:49:38.722Z,35.27
2023-02-16T11:52:27.741Z,35.40
2023-02-16T11:55:09.612Z,41.60
2023-02-16T11:57:38.799Z,40.23
2023-02-16T12:00:18.113Z,40.13
2023-02-16T12:03:07.988Z,33.67
2023-02-16T12:05:41.384Z,35.00
2023-02-16T12:08:22.198Z,37.13
2023-02-16T12:11:02.022Z,37.73
2023-02-16T12:13:39.060Z,40.73
2023-02-16T12:16:18.080Z,37.33
2023-02-16T12:18:57.530Z,34.73
2023-02-16T12:21:34.793Z,35.60
2023-02-16T12:24:13.857Z,40.90
2023-02-16T12:26:44.912Z,38.57
2023-02-16T12:29:25.537Z,39.07
2023-02-16T12:32:04.141Z,36.33
2023-02-16T12:34:40.296Z,41.13
2023-02-16T12:37:14.367Z,36.40
2023-02-16T12:39:47.582Z,35.40
2023-02-16T12:42:32.749Z,38.80
2023-02-16T12:45:03.247Z,40.30
2023-02-16T12:47:35.477Z,35.67
2023-02-16T12:50:05.323Z,38.40
2023-02-16T12:52:37.653Z,37.43
2023-02-16T12:55:16.890Z,37.07
2023-02-16T12:57:50.108Z,40.50
2023-02-16T13:00:23.990Z,41.37
2023-02-16T13:02:56.783Z,36.17
2023-02-16T13:05:26.892Z,36.57
2023-02-16T13:08:01.433Z,47.87
2023-02-16T13:10:34.314Z,43.23
2023-02-16T13:13:04.278Z,39.07
2023-02-16T13:15:35.744Z,34.90
2023-02-16T13:18:07.972Z,39.00
2023-02-16T13:20:36.245Z,34.10
2023-02-16T13:23:25.750Z,37.20
2023-02-16T13:26:18.226Z,40.40
2023-02-16T13:29:04.664Z,39.20
2023-02-16T13:31:44.740Z,38.77
2023-02-16T13:34:28.829Z,39.17
2023-02-16T13:37:14.580Z,39.37
2023-02-16T13:40:01.172Z,39.13
2023-02-16T13:43:01.093Z,39.80
2023-02-16T13:45:30.867Z,43.03
2023-02-16T13:47:59.014Z,39.37
2023-02-16T13:50:31.146Z,37.63
2023-02-16T13:53:02.175Z,42.63
2023-02-16T13:55:31.684Z,44.93
2023-02-16T13:58:04.406Z,49.10
2023-02-16T14:00:35.973Z,51.77
2023-02-16T14:03:12.160Z,42.67
2023-02-16T14:05:43.035Z,50.10
2023-02-16T14:08:28.572Z,52.10
2023-02-16T14:11:03.871Z,52.27
2023-02-16T14:13:33.691Z,52.20
2023-02-16T14:16:08.093Z,53.13
2023-02-16T14:18:43.206Z,53.03
2023-02-16T14:21:22.073Z,48.07
2023-02-16T14:23:56.115Z,58.85
2023-02-16T14:26:26.642Z,52.03
2023-02-16T14:29:04.130Z,51.63
2023-02-16T14:31:34.181Z,50.30
2023-02-16T14:34:06.402Z,48.03
2023-02-16T14:36:36.003Z,50.30
2023-02-16T14:39:03.863Z,54.37
2023-02-16T14:41:33.273Z,57.47
2023-02-16T14:44:24.811Z,54.33
2023-02-16T14:47:00.780Z,56.87
2023-02-16T14:49:40.590Z,59.03
2023-02-16T14:52:37.242Z,55.17
2023-02-16T14:55:41.636Z,56.30
2023-02-16T14:58:21.066Z,58.67
2023-02-16T15:00:52.666Z,59.43
2023-02-16T15:03:23.287Z,67.20
2023-02-16T15:05:53.625Z,55.80
2023-02-16T15:08:25.313Z,67.60
2023-02-16T15:10:58.442Z,60.47
2023-02-16T15:13:28.205Z,65.70
2023-02-16T15:15:57.837Z,62.80
2023-02-16T15:18:28.296Z,63.73
2023-02-16T15:20:57.419Z,60.17
2023-02-16T15:23:27.801Z,61.20
2023-02-16T15:25:59.602Z,60.20
2023-02-16T15:28:29.397Z,67.20
2023-02-16T15:30:58.383Z,70.03
2023-02-16T15:33:37.141Z,60.67
2023-02-16T15:36:08.934Z,63.03
2023-02-16T15:38:39.653Z,72.50
2023-02-16T15:41:09.232Z,61.30
2023-02-16T15:43:39.970Z,66.50
2023-02-16T15:46:08.815Z,61.33
2023-02-16T15:48:37.693Z,61.73
2023-02-16T15:51:12.077Z,62.97
2023-02-16T15:53:46.712Z,67.93
2023-02-16T15:56:29.746Z,67.73
2023-02-16T15:58:58.578Z,68.60
2023-02-16T16:01:32.891Z,77.57
2023-02-16T16:04:02.961Z,79.37
2023-02-16T16:06:38.469Z,62.53
2023-02-16T16:09:08.608Z,74.30
2023-02-16T16:11:37.807Z,63.33
2023-02-16T16:14:07.363Z,74.17
2023-02-16T16:16:35.180Z,71.50
2023-02-16T16:19:08.940Z,65.10
2023-02-16T16:21:39.289Z,71.30
2023-02-16T16:24:10.312Z,67.10
2023-02-16T16:26:55.285Z,78.47
2023-02-16T16:29:31.752Z,62.90
2023-02-16T16:31:59.575Z,53.10
2023-02-16T16:34:36.181Z,65.83
2023-02-16T16:37:06.843Z,65.23
2023-02-16T16:39:37.473Z,72.53
2023-02-16T16:42:16.722Z,86.80
2023-02-16T16:44:46.590Z,71.73
2023-02-16T16:47:24.808Z,65.73
2023-02-16T16:49:55.490Z,66.57
2023-02-16T16:52:38.748Z,69.03
2023-02-16T16:55:29.526Z,82.33
2023-02-16T16:57:58.539Z,59.30
2023-02-16T17:00:27.851Z,75.17
2023-02-16T17:02:55.437Z,55.33
2023-02-16T17:05:23.624Z,64.17
2023-02-16T17:07:51.844Z,56.00
2023-02-16T17:10:21.297Z,59.80
2023-02-16T17:12:53.618Z,60.53
2023-02-16T17:15:37.639Z,70.50
2023-02-16T17:18:06.204Z,51.83
2023-02-16T17:20:33.964Z,69.73
2023-02-16T17:23:04.555Z,74.20
2023-02-16T17:25:34.103Z,61.33
2023-02-16T17:28:03.961Z,65.90
2023-02-16T17:30:31.548Z,68.47
2023-02-16T17:32:59.471Z,72.03
2023-02-16T17:35:27.221Z,64.17
2023-02-16T17:37:54.768Z,63.70
2023-02-16T17:40:23.727Z,64.83
2023-02-16T17:42:51.995Z,60.57
2023-02-16T17:45:22.647Z,71.70
2023-02-16T17:47:52.392Z,62.83
2023-02-16T17:50:21.267Z,66.77
2023-02-16T17:52:48.803Z,69.73
2023-02-16T17:55:16.637Z,85.30
2023-02-16T17:57:44.128Z,97.67
2023-02-16T18:00:15.038Z,109.07
2023-02-16T18:02:43.875Z,72.93
2023-02-16T18:05:11.482Z,85.27
2023-02-16T18:07:38.973Z,62.20
2023-02-16T18:10:07.526Z,72.27
2023-02-16T18:12:35.004Z,65.97
2023-02-16T18:15:02.501Z,70.87
2023-02-16T18:17:29.978Z,69.80
2023-02-16T18:19:58.882Z,72.23
2023-02-16T18:22:26.500Z,77.90
2023-02-16T18:24:54.075Z,68.00
2023-02-16T18:27:21.607Z,57.63
2023-02-16T18:29:49.193Z,54.40
2023-02-16T18:32:16.659Z,56.03
2023-02-16T18:34:44.210Z,66.17
2023-02-16T18:37:13.075Z,51.80
2023-02-16T18:39:42.829Z,52.17
2023-02-16T18:42:10.479Z,55.13
2023-02-16T18:44:38.101Z,53.73
2023-02-16T18:47:05.713Z,55.07
2023-02-16T18:49:33.372Z,52.87
2023-02-16T18:52:00.874Z,56.07
2023-02-16T18:54:29.728Z,52.43
2023-02-16T18:56:57.218Z,53.53
2023-02-16T18:59:24.814Z,70.67
2023-02-16T19:01:56.239Z,50.80
2023-02-16T19:04:24.222Z,52.43
2023-02-16T19:06:52.039Z,56.97
2023-02-16T19:09:19.764Z,54.07
2023-02-16T19:11:48.833Z,47.70
2023-02-16T19:14:16.749Z,47.53
2023-02-16T19:16:44.939Z,47.40
2023-02-16T19:19:12.440Z,54.93
2023-02-16T19:21:40.996Z,43.83
2023-02-16T19:24:08.918Z,54.27
2023-02-16T19:26:37.164Z,57.40
2023-02-16T19:29:06.303Z,53.07
2023-02-16T19:31:35.445Z,54.37
2023-02-16T19:34:04.535Z,53.20
2023-02-16T19:36:34.072Z,59.07
2023-02-16T19:39:02.395Z,53.17
2023-02-16T19:41:32.073Z,48.17
2023-02-16T19:43:59.800Z,43.97
2023-02-16T19:46:29.413Z,46.10
2023-02-16T19:48:58.256Z,49.97
2023-02-16T19:51:26.652Z,45.10
2023-02-16T19:53:54.779Z,46.67
2023-02-16T19:56:24.853Z,44.87
2023-02-16T19:58:53.016Z,39.87
2023-02-16T20:01:22.424Z,46.07
2023-02-16T20:03:54.120Z,41.20
2023-02-16T20:06:23.345Z,43.03
2023-02-16T20:08:52.021Z,47.07
2023-02-16T20:11:22.010Z,49.27
2023-02-16T20:13:50.399Z,46.40
2023-02-16T20:16:18.943Z,40.00
2023-02-16T20:18:46.680Z,43.67
2023-02-16T20:21:18.007Z,42.23
2023-02-16T20:23:45.845Z,39.13
2023-02-16T20:26:16.209Z,39.47
2023-02-16T20:28:43.760Z,38.97
2023-02-16T20:31:13.225Z,39.67
2023-02-16T20:33:40.994Z,39.17
2023-02-16T20:36:09.012Z,37.30
2023-02-16T20:38:37.883Z,38.03
2023-02-16T20:41:05.740Z,41.63
2023-02-16T20:43:34.115Z,39.53
2023-02-16T20:46:03.061Z,36.07
2023-02-16T20:48:30.766Z,35.33
2023-02-16T20:50:59.656Z,36.43
2023-02-16T20:53:29.704Z,38.17
2023-02-16T20:56:03.417Z,34.93
2023-02-16T20:58:31.136Z,36.60
2023-02-16T21:00:59.019Z,38.60
2023-02-16T21:03:26.701Z,37.90
2023-02-16T21:05:54.532Z,36.23
2023-02-16T21:08:22.278Z,40.53
2023-02-16T21:10:49.797Z,42.53
2023-02-16T21:13:18.707Z,38.17
2023-02-16T21:15:46.237Z,42.17
2023-02-16T21:18:13.905Z,38.80
2023-02-16T21:20:41.452Z,39.90
2023-02-16T21:23:09.278Z,34.30
2023-02-16T21:25:36.815Z,38.47
2023-02-16T21:28:04.690Z,43.40
2023-02-16T21:30:33.583Z,38.17
2023-02-16T21:33:01.079Z,32.63
2023-02-16T21:35:28.697Z,34.67
2023-02-16T21:37:56.655Z,42.47
2023-02-16T21:40:41.792Z,36.07
2023-02-16T21:43:09.385Z,40.03
2023-02-16T21:45:38.250Z,35.77
2023-02-16T21:48:23.613Z,36.90
2023-02-16T21:50:51.151Z,38.43
2023-02-16T21:53:18.722Z,37.80
2023-02-16T21:56:04.441Z,35.73
2023-02-16T21:58:34.010Z,32.60
2023-02-16T22:01:02.924Z,34.53
2023-02-16T22:03:31.004Z,36.40
2023-02-16T22:06:02.666Z,34.63
2023-02-16T22:08:31.077Z,35.37
2023-02-16T22:11:04.530Z,35.93
2023-02-16T22:13:32.266Z,34.37
2023-02-16T22:15:59.872Z,32.20
2023-02-16T22:18:28.851Z,32.83
2023-02-16T22:20:56.405Z,33.20
2023-02-16T22:23:23.929Z,35.03
2023-02-16T22:25:51.473Z,32.97
2023-02-16T22:28:19.078Z,34.90
2023-02-16T22:30:46.619Z,32.50
2023-02-16T22:33:14.662Z,35.13
2023-02-16T22:35:43.563Z,32.47
2023-02-16T22:38:11.157Z,35.07
2023-02-16T22:40:38.734Z,32.63
2023-02-16T22:43:06.238Z,34.23
2023-02-16T22:45:34.531Z,36.23
2023-02-16T22:48:02.200Z,32.30
2023-02-16T22:50:29.860Z,30.27
2023-02-16T22:52:58.713Z,32.80
2023-02-16T22:55:26.457Z,30.17
2023-02-16T22:57:53.988Z,31.80
2023-02-16T23:00:21.641Z,35.07
2023-02-16T23:02:49.225Z,33.80
2023-02-16T23:05:17.107Z,32.07
2023-02-16T23:07:44.619Z,31.70
2023-02-16T23:10:13.610Z,30.50
2023-02-16T23:12:41.157Z,35.93
2023-02-16T23:15:09.497Z,32.10
2023-02-16T23:17:37.211Z,31.50
2023-02-16T23:20:05.424Z,31.77
2023-02-16T23:22:32.977Z,30.33
2023-02-16T23:25:18.463Z,30.03
2023-02-16T23:27:47.421Z,29.63
2023-02-16T23:30:15.337Z,28.97
2023-02-16T23:32:42.868Z,30.53
2023-02-16T23:35:10.404Z,33.73
2023-02-16T23:37:38.208Z,36.03
2023-02-16T23:40:06.664Z,34.20
2023-02-16T23:42:34.274Z,30.30
2023-02-16T23:45:03.110Z,30.63
2023-02-16T23:47:30.657Z,29.83
2023-02-16T23:49:58.212Z,28.10
2023-02-16T23:52:26.014Z,31.17
2023-02-16T23:54:53.533Z,33.73
2023-02-16T23:57:21.089Z,28.53
2023-02-16T23:59:48.869Z,31.10
